This is the latest recevied weather packets stored in our database for station/object VA7NEZ. If no packets are shown the sender has not sent any weather packets the latest 10 day(s).
| Time | Temp. | Humidity | Pressure | Rain* | Wind** | Luminosity | Snow |
|---|---|---|---|---|---|---|---|
| 1778268551 | 19.44° C | 37% | 1013 hPa | 0 mm | - | - | - |
| 1778267996 | 19.44° C | 36% | 1012.8 hPa | 0 mm | - | - | - |
| 1778267415 | 18.89° C | 42% | 1012.8 hPa | 0 mm | - | - | - |
| 1778266821 | 18.89° C | 41% | 1013 hPa | 0 mm | - | - | - |
| 1778266316 | 18.89° C | 38% | 1012.8 hPa | 0 mm | - | - | - |
| 1778265757 | 18.89° C | 39% | 1012.7 hPa | 0 mm | - | - | - |
| 1778265161 | 18.89° C | 38% | 1012.8 hPa | 0 mm | - | - | - |
| 1778264611 | 0° C | 100% | 1012.8 hPa | 0 mm | - | - | - |
| 1778264046 | 18.89° C | 37% | 1012.7 hPa | 0 mm | - | - | - |
| 1778263036 | 18.33° C | 38% | 1012.6 hPa | 0 mm | - | - | - |
| 1778262512 | 17.78° C | 39% | 1012.5 hPa | 0 mm | - | - | - |
| 1778261973 | 17.78° C | 37% | 1012.8 hPa | 0 mm | - | - | - |
| 1778260252 | 17.78° C | 37% | 1012.8 hPa | 0 mm | - | - | - |
| 1778259771 | 17.22° C | 39% | 1012.8 hPa | 0 mm | - | - | - |
| 1778259212 | 17.22° C | 39% | 1012.8 hPa | 0 mm | - | - | - |
| 1778258673 | 16.67° C | 42% | 1012.9 hPa | 0 mm | - | - | - |
| 1778258107 | 16.67° C | 42% | 1013 hPa | 0 mm | - | - | - |
| 1778257549 | 16.67° C | 44% | 1012.9 hPa | 0 mm | - | - | - |
| 1778257002 | 16.11° C | 46% | 1013 hPa | 0 mm | - | - | - |
| 1778256517 | 15.56° C | 46% | 1013.1 hPa | 0 mm | - | - | - |
| 1778255942 | 15.56° C | 47% | 1013.1 hPa | 0 mm | - | - | - |
| 1778254752 | 0° C | 100% | 1012.9 hPa | 0 mm | - | - | - |
| 1778253696 | 14.44° C | 51% | 1013.1 hPa | 0 mm | - | - | - |
| 1778253167 | 13.89° C | 52% | 1013.1 hPa | 0 mm | - | - | - |
| 1778252627 | 13.89° C | 53% | 1013.2 hPa | 0 mm | - | - | - |
* Rain latest hour (hover to see other rain measurements)
** Current wind speed in m/s (hover to see current wind gust speed)